Time;durP1;ratioP1;P1;durP2;ratioP2;P2;SDS_P1;SDS_P2;PMS_P1;PMS_P2;Temp;Humidity;BMP_temperature;BMP_pressure;BME280_temperature;BME280_humidity;BME280_pressure;Samples;Min_cycle;Max_cycle;Signal;HPM_P1;HPM_P2
2022/01/03 00:01:11;;;;;;;19.10;3.75;;;8.30;99.90;;;;;;5060939;28;20461;-72
2022/01/03 00:03:37;;;;;;;11.07;3.75;;;8.40;99.90;;;;;;5061125;28;20063;-72
2022/01/03 00:06:04;;;;;;;9.60;4.22;;;8.40;99.90;;;;;;5065412;28;20044;-72
2022/01/03 00:08:30;;;;;;;14.75;3.72;;;8.40;99.90;;;;;;5065070;28;21149;-71
2022/01/03 00:10:56;;;;;;;14.70;5.05;;;8.40;99.90;;;;;;5060505;28;20045;-72
2022/01/03 00:13:23;;;;;;;13.63;4.85;;;8.50;99.90;;;;;;5054932;28;20036;-71
2022/01/03 00:15:50;;;;;;;15.82;4.88;;;8.50;99.90;;;;;;5066415;28;20039;-72
2022/01/03 00:18:16;;;;;;;16.75;5.13;;;8.50;99.90;;;;;;5062105;28;20052;-72
2022/01/03 00:20:51;;;;;;;12.55;5.50;;;8.60;99.90;;;;;;5065000;28;20056;-71
2022/01/03 00:23:17;;;;;;;19.63;5.25;;;8.60;99.90;;;;;;5065809;28;20508;-71
2022/01/03 00:25:50;;;;;;;18.88;5.70;;;8.60;99.90;;;;;;5063889;28;20076;-72
2022/01/03 00:28:22;;;;;;;9.77;5.22;;;8.60;99.90;;;;;;5065025;28;20390;-72
2022/01/03 00:30:53;;;;;;;28.17;5.90;;;8.70;99.90;;;;;;5066030;28;20041;-72
2022/01/03 00:33:21;;;;;;;19.00;5.43;;;8.70;99.90;;;;;;5065059;28;20519;-72
2022/01/03 00:35:53;;;;;;;16.40;5.83;;;8.70;99.90;;;;;;5048341;28;20567;-71
2022/01/03 00:38:20;;;;;;;32.88;7.55;;;8.80;99.90;;;;;;5059267;28;20136;-72
2022/01/03 00:40:47;;;;;;;19.60;5.32;;;8.80;99.90;;;;;;5062059;28;20041;-72
2022/01/03 00:43:16;;;;;;;15.85;4.32;;;8.80;99.90;;;;;;5064252;28;20033;-72
2022/01/03 00:45:41;;;;;;;23.13;7.05;;;8.80;99.90;;;;;;5065352;28;20051;-71
2022/01/03 00:48:09;;;;;;;25.70;5.22;;;8.80;99.90;;;;;;5063603;28;20048;-72
2022/01/03 00:50:35;;;;;;;21.35;5.18;;;8.80;99.90;;;;;;5041846;28;20102;-71
2022/01/03 00:53:01;;;;;;;22.70;6.47;;;8.90;99.90;;;;;;5064542;28;20045;-72
2022/01/03 00:55:27;;;;;;;31.33;5.95;;;8.90;99.90;;;;;;5060308;28;20135;-71
2022/01/03 00:58:09;;;;;;;23.38;5.75;;;8.90;99.90;;;;;;5067971;28;20059;-71
2022/01/03 01:00:37;;;;;;;23.20;6.95;;;8.90;99.90;;;;;;5069343;28;20059;-71
2022/01/03 01:03:15;;;;;;;29.15;7.45;;;9.00;99.90;;;;;;5067180;28;20063;-71
2022/01/03 01:05:50;;;;;;;23.63;7.43;;;9.00;99.90;;;;;;5072911;28;20478;-71
2022/01/03 01:08:21;;;;;;;25.00;7.55;;;9.00;99.90;;;;;;5068161;28;20056;-71
2022/01/03 01:10:50;;;;;;;39.80;7.47;;;9.10;99.90;;;;;;5066506;28;20070;-72
2022/01/03 01:13:19;;;;;;;35.03;8.38;;;9.10;99.90;;;;;;5069140;28;20113;-71
2022/01/03 01:15:45;;;;;;;38.40;7.60;;;9.10;99.90;;;;;;5064497;28;20512;-72
2022/01/03 01:18:11;;;;;;;33.03;7.00;;;9.10;99.90;;;;;;5068266;28;20049;-71
2022/01/03 01:20:39;;;;;;;39.38;9.05;;;9.10;99.90;;;;;;5066045;28;20109;-71
2022/01/03 01:23:06;;;;;;;30.42;7.85;;;9.10;99.90;;;;;;5068577;28;20037;-71
2022/01/03 01:28:02;;;;;;;33.20;9.48;;;9.10;99.90;;;;;;5068064;28;20082;-72
2022/01/03 01:30:28;;;;;;;39.60;9.95;;;9.20;99.90;;;;;;5057076;28;20103;-72
2022/01/03 01:32:57;;;;;;;30.55;8.98;;;9.20;99.90;;;;;;5070308;28;20477;-71
2022/01/03 01:35:26;;;;;;;34.40;7.95;;;9.10;99.90;;;;;;5068826;28;20076;-71
2022/01/03 01:37:56;;;;;;;34.97;8.10;;;9.10;99.90;;;;;;5065875;28;20052;-71
2022/01/03 01:40:23;;;;;;;33.95;7.40;;;9.10;99.90;;;;;;5064235;28;20049;-72
2022/01/03 01:42:49;;;;;;;44.15;8.85;;;9.10;99.90;;;;;;5072819;28;20093;-71
2022/01/03 01:45:19;;;;;;;38.38;8.07;;;9.00;99.90;;;;;;5067032;28;20552;-72
2022/01/03 01:47:48;;;;;;;37.38;8.75;;;9.10;99.90;;;;;;5060043;28;20040;-72
2022/01/03 01:50:14;;;;;;;28.65;7.93;;;9.10;99.90;;;;;;5059959;28;20053;-71
2022/01/03 01:52:43;;;;;;;33.53;8.80;;;9.10;99.90;;;;;;5060287;28;20731;-72
2022/01/03 01:55:12;;;;;;;37.50;8.65;;;9.10;99.90;;;;;;5069342;28;20101;-71
2022/01/03 01:58:04;;;;;;;38.88;8.35;;;9.10;99.90;;;;;;5063831;28;20053;-71
2022/01/03 02:00:32;;;;;;;25.92;9.98;;;9.10;99.90;;;;;;5057939;28;20080;-71
2022/01/03 02:03:11;;;;;;;38.88;10.60;;;9.00;99.90;;;;;;5062934;28;20056;-72
2022/01/03 02:05:40;;;;;;;33.03;11.30;;;9.10;99.90;;;;;;5065214;28;20056;-72
2022/01/03 02:08:24;;;;;;;35.75;8.70;;;9.10;99.90;;;;;;5060869;28;20057;-71
2022/01/03 02:10:52;;;;;;;33.20;8.05;;;9.10;99.90;;;;;;5067940;28;20055;-71
2022/01/03 02:13:22;;;;;;;29.58;8.27;;;9.10;99.90;;;;;;5066186;28;20526;-72
2022/01/03 02:15:57;;;;;;;34.65;9.70;;;9.10;99.90;;;;;;5058248;28;20452;-71
2022/01/03 02:18:23;;;;;;;40.08;8.45;;;9.10;99.90;;;;;;5067763;28;20084;-71
2022/01/03 02:20:49;;;;;;;41.33;9.25;;;9.10;99.90;;;;;;5060066;28;20064;-71
2022/01/03 02:23:14;;;;;;;35.70;8.50;;;9.20;99.90;;;;;;5066157;28;20546;-71
2022/01/03 02:25:40;;;;;;;36.17;7.80;;;9.20;99.90;;;;;;5068638;28;20056;-71
2022/01/03 02:28:06;;;;;;;38.15;7.78;;;9.20;99.90;;;;;;5069379;28;20041;-71
2022/01/03 02:30:33;;;;;;;27.35;8.30;;;9.20;99.90;;;;;;5064188;28;20048;-71
2022/01/03 02:32:59;;;;;;;26.33;7.88;;;9.20;99.90;;;;;;5068764;28;20498;-71
2022/01/03 02:35:27;;;;;;;31.20;8.57;;;9.10;99.90;;;;;;5068253;28;20047;-71
2022/01/03 02:37:54;;;;;;;31.10;7.40;;;9.10;99.90;;;;;;5055155;28;20096;-71
2022/01/03 02:40:20;;;;;;;35.83;7.88;;;9.10;99.90;;;;;;5069664;28;20800;-71
2022/01/03 02:42:47;;;;;;;29.10;7.40;;;9.10;99.90;;;;;;5066165;28;20040;-71
2022/01/03 02:45:19;;;;;;;34.70;8.45;;;9.10;99.90;;;;;;5067012;28;20059;-71
2022/01/03 02:47:49;;;;;;;48.17;8.50;;;9.10;99.90;;;;;;5066599;28;20048;-71
2022/01/03 02:50:16;;;;;;;39.40;8.23;;;9.10;99.90;;;;;;5066976;28;20060;-71
2022/01/03 02:52:43;;;;;;;33.75;7.82;;;9.10;99.90;;;;;;5059985;28;20048;-71
2022/01/03 02:55:10;;;;;;;29.05;7.03;;;9.10;99.90;;;;;;5046879;28;20083;-71
2022/01/03 02:57:41;;;;;;;26.63;7.38;;;9.10;99.90;;;;;;5069952;28;20046;-71
2022/01/03 03:00:14;;;;;;;31.35;6.55;;;9.10;99.90;;;;;;5064107;28;20056;-71
2022/01/03 03:02:40;;;;;;;33.92;6.00;;;9.10;99.90;;;;;;5065355;28;20053;-71
2022/01/03 03:05:08;;;;;;;38.05;7.40;;;9.10;99.90;;;;;;5064295;28;20048;-71
2022/01/03 03:07:34;;;;;;;25.92;7.00;;;9.00;99.90;;;;;;5062058;28;20485;-71
2022/01/03 03:10:03;;;;;;;33.53;8.20;;;9.00;99.90;;;;;;5058889;28;20044;-71
2022/01/03 03:12:29;;;;;;;40.03;7.72;;;9.00;99.90;;;;;;5061437;28;20509;-71
2022/01/03 03:14:57;;;;;;;32.00;6.80;;;9.00;99.90;;;;;;5063637;28;20044;-71
2022/01/03 03:17:23;;;;;;;33.28;8.95;;;8.90;99.90;;;;;;5062245;28;20036;-71
2022/01/03 03:19:53;;;;;;;38.42;8.50;;;8.90;99.90;;;;;;5062611;28;20413;-71
2022/01/03 03:22:19;;;;;;;26.48;7.70;;;9.00;99.90;;;;;;5065483;28;20439;-71
2022/01/03 03:24:44;;;;;;;40.05;8.45;;;9.00;99.90;;;;;;5066892;28;20040;-71
2022/01/03 03:27:12;;;;;;;28.48;7.13;;;8.90;99.90;;;;;;5071488;28;20060;-71
2022/01/03 03:29:49;;;;;;;52.63;8.93;;;8.90;99.90;;;;;;5070280;28;20427;-71
2022/01/03 03:32:16;;;;;;;40.60;8.25;;;8.90;99.90;;;;;;5066719;28;20401;-71
2022/01/03 03:34:42;;;;;;;59.78;9.50;;;8.90;99.90;;;;;;5067807;28;20108;-72
2022/01/03 03:37:09;;;;;;;31.73;6.35;;;8.90;99.90;;;;;;5066640;28;20087;-72
2022/01/03 03:39:36;;;;;;;44.10;9.25;;;8.90;99.90;;;;;;5076084;28;20169;-71
2022/01/03 03:42:04;;;;;;;45.05;9.20;;;8.80;99.90;;;;;;5065425;28;20055;-70
2022/01/03 03:44:29;;;;;;;34.05;5.97;;;8.70;99.90;;;;;;5047775;28;20041;-71
2022/01/03 03:46:55;;;;;;;39.70;8.43;;;8.60;99.90;;;;;;5066541;28;20090;-71
2022/01/03 03:49:21;;;;;;;37.75;7.47;;;8.60;99.90;;;;;;5066102;28;20571;-71
2022/01/03 03:51:47;;;;;;;51.33;9.52;;;8.60;99.90;;;;;;5056335;28;20049;-71
2022/01/03 03:54:12;;;;;;;35.45;7.63;;;8.70;99.90;;;;;;5063455;28;20051;-71
2022/01/03 03:56:38;;;;;;;32.28;8.10;;;8.70;99.90;;;;;;5065514;28;20041;-71
2022/01/03 03:59:04;;;;;;;43.92;7.57;;;8.70;99.90;;;;;;5049260;28;20408;-71
2022/01/03 04:01:29;;;;;;;62.95;9.35;;;8.80;99.90;;;;;;5064844;28;20044;-71
2022/01/03 04:03:55;;;;;;;23.90;5.40;;;8.80;99.90;;;;;;5072862;28;20064;-71
2022/01/03 04:06:21;;;;;;;42.45;8.27;;;8.80;99.90;;;;;;5064959;28;20493;-72
2022/01/03 04:08:46;;;;;;;39.65;8.27;;;8.80;99.90;;;;;;5068558;28;20119;-71
2022/01/03 04:11:13;;;;;;;42.63;9.32;;;8.80;99.90;;;;;;5065689;28;20036;-71
2022/01/03 04:13:40;;;;;;;49.95;9.55;;;8.80;99.90;;;;;;5061974;28;20095;-71
2022/01/03 04:16:07;;;;;;;37.35;7.22;;;8.80;99.90;;;;;;5066627;28;20049;-71
2022/01/03 04:18:33;;;;;;;38.97;8.73;;;8.80;99.90;;;;;;5064291;28;20080;-72
2022/01/03 04:20:59;;;;;;;34.30;8.20;;;8.80;99.90;;;;;;5062385;28;20075;-71
2022/01/03 04:23:25;;;;;;;40.60;8.68;;;8.80;99.90;;;;;;5061842;28;20040;-71
2022/01/03 04:25:51;;;;;;;40.10;7.68;;;8.90;99.90;;;;;;5064856;28;20106;-71
2022/01/03 04:28:18;;;;;;;32.25;8.43;;;8.90;99.90;;;;;;5063389;28;20140;-71
2022/01/03 04:30:44;;;;;;;48.42;10.77;;;8.90;99.90;;;;;;5066117;28;20041;-71
2022/01/03 04:33:09;;;;;;;44.67;8.65;;;8.90;99.90;;;;;;5070296;28;20052;-71
2022/01/03 04:35:36;;;;;;;40.80;8.68;;;8.90;99.90;;;;;;5067560;28;20197;-71
2022/01/03 04:38:02;;;;;;;41.80;7.45;;;8.90;99.90;;;;;;5056212;28;20080;-71
2022/01/03 04:40:28;;;;;;;40.92;8.32;;;9.00;99.90;;;;;;5070201;28;20049;-71
2022/01/03 04:42:54;;;;;;;54.10;11.65;;;9.00;99.90;;;;;;5071171;28;20047;-71
2022/01/03 04:45:19;;;;;;;32.78;8.35;;;9.00;99.90;;;;;;5067933;28;20041;-71
2022/01/03 04:47:45;;;;;;;40.47;10.88;;;9.00;99.90;;;;;;5058854;28;20084;-71
2022/01/03 04:50:11;;;;;;;46.00;8.75;;;9.10;99.90;;;;;;5069732;28;20407;-71
2022/01/03 04:52:36;;;;;;;35.40;7.38;;;9.10;99.90;;;;;;5068530;28;20067;-71
2022/01/03 04:55:03;;;;;;;57.88;11.18;;;9.10;99.90;;;;;;5069636;28;20067;-71
2022/01/03 04:57:29;;;;;;;41.08;9.88;;;9.10;99.90;;;;;;5074711;28;20051;-71
2022/01/03 04:59:54;;;;;;;41.55;10.15;;;9.10;99.90;;;;;;5077852;28;20049;-71
2022/01/03 05:02:20;;;;;;;33.90;9.13;;;9.10;99.90;;;;;;5070914;28;20377;-71
2022/01/03 05:04:46;;;;;;;44.67;10.20;;;9.10;99.90;;;;;;5065503;28;20049;-71
2022/01/03 05:07:11;;;;;;;41.90;9.55;;;9.20;99.90;;;;;;5070479;28;20416;-71
2022/01/03 05:09:37;;;;;;;34.60;9.95;;;9.20;99.90;;;;;;5067383;28;20041;-71
2022/01/03 05:12:04;;;;;;;29.85;8.65;;;9.20;99.90;;;;;;5066075;28;20047;-71
2022/01/03 05:14:29;;;;;;;60.17;10.65;;;9.20;99.90;;;;;;5069729;28;20056;-71
2022/01/03 05:16:57;;;;;;;52.10;10.75;;;9.20;99.90;;;;;;5068367;28;20036;-71
2022/01/03 05:19:23;;;;;;;60.25;13.20;;;9.20;99.90;;;;;;5070553;28;20037;-71
2022/01/03 05:21:50;;;;;;;38.85;9.27;;;9.20;99.90;;;;;;5071078;28;20056;-71
2022/01/03 05:24:16;;;;;;;61.40;10.45;;;9.20;99.90;;;;;;5062973;28;20051;-71
2022/01/03 05:26:42;;;;;;;61.97;11.43;;;9.20;99.90;;;;;;5070904;28;20052;-71
2022/01/03 05:29:08;;;;;;;50.63;11.20;;;9.20;99.90;;;;;;5065706;28;20503;-71
2022/01/03 05:31:34;;;;;;;47.35;9.75;;;9.10;99.90;;;;;;5069103;28;20063;-71
2022/01/03 05:34:00;;;;;;;54.90;10.98;;;9.10;99.90;;;;;;5068365;28;20048;-71
2022/01/03 05:36:27;;;;;;;53.05;10.93;;;9.10;99.90;;;;;;5067476;28;20040;-71
2022/01/03 05:38:53;;;;;;;49.53;9.88;;;9.10;99.90;;;;;;5068863;28;20481;-71
2022/01/03 05:41:19;;;;;;;44.00;9.48;;;9.10;99.90;;;;;;5066279;28;20044;-71
2022/01/03 05:43:45;;;;;;;42.47;10.65;;;9.00;99.90;;;;;;5066176;28;20124;-71
2022/01/03 05:46:11;;;;;;;37.33;8.68;;;9.10;99.90;;;;;;5063728;28;20068;-71
2022/01/03 05:48:37;;;;;;;49.95;12.13;;;9.10;99.90;;;;;;5063334;28;20162;-71
2022/01/03 05:51:03;;;;;;;57.20;10.93;;;9.10;99.90;;;;;;5069734;28;20123;-71
2022/01/03 05:53:30;;;;;;;42.72;10.70;;;9.10;99.90;;;;;;5066976;28;20130;-71
2022/01/03 05:55:57;;;;;;;47.80;10.02;;;9.10;99.90;;;;;;5068770;28;20063;-71
2022/01/03 05:58:22;;;;;;;57.53;10.98;;;9.10;99.90;;;;;;5070674;28;20796;-71
2022/01/03 06:00:48;;;;;;;55.08;10.00;;;9.10;99.90;;;;;;5069439;28;20040;-71
2022/01/03 06:03:15;;;;;;;54.17;10.88;;;9.20;99.90;;;;;;5068889;28;20052;-72
2022/01/03 06:06:03;;;;;;;35.75;9.23;;;9.20;99.90;;;;;;5067966;28;20052;-71
2022/01/03 06:08:26;;;;;;;46.08;9.68;;;9.20;99.90;;;;;;5062538;28;20088;-71
2022/01/03 06:10:52;;;;;;;70.43;10.38;;;9.20;99.90;;;;;;5067842;28;20528;-71
2022/01/03 06:13:19;;;;;;;46.42;10.27;;;9.10;99.90;;;;;;5069560;28;20060;-71
2022/01/03 06:15:45;;;;;;;51.72;9.05;;;9.10;99.90;;;;;;5069297;28;20086;-71
2022/01/03 06:18:15;;;;;;;53.08;10.63;;;9.10;99.90;;;;;;5066231;28;20131;-71
2022/01/03 06:20:43;;;;;;;45.22;9.73;;;9.10;99.90;;;;;;5070720;28;20052;-71
2022/01/03 06:23:09;;;;;;;48.10;9.35;;;9.10;99.90;;;;;;5065364;28;20048;-71
2022/01/03 06:25:36;;;;;;;56.88;10.13;;;9.10;99.90;;;;;;5062348;28;20556;-71
2022/01/03 06:28:07;;;;;;;42.33;10.23;;;9.00;99.90;;;;;;5068461;28;20040;-71
2022/01/03 06:30:41;;;;;;;39.15;9.43;;;9.10;99.90;;;;;;5066127;28;20113;-71
2022/01/03 06:33:08;;;;;;;43.97;8.60;;;9.10;99.90;;;;;;5057797;28;20041;-71
2022/01/03 06:35:34;;;;;;;38.58;8.35;;;9.00;99.90;;;;;;5068971;28;20053;-71
2022/01/03 06:38:01;;;;;;;35.55;9.27;;;8.90;99.90;;;;;;5065745;28;20048;-71
2022/01/03 06:40:27;;;;;;;53.97;9.75;;;8.90;99.90;;;;;;5066635;28;20060;-71
2022/01/03 06:42:53;;;;;;;52.75;9.95;;;8.90;99.90;;;;;;5059503;28;20049;-71
2022/01/03 06:45:19;;;;;;;42.95;8.85;;;8.90;99.90;;;;;;5060594;28;20049;-71
2022/01/03 06:47:46;;;;;;;42.47;10.15;;;8.80;99.90;;;;;;5069508;28;20584;-71
2022/01/03 06:50:11;;;;;;;41.20;10.02;;;8.90;99.90;;;;;;5068806;28;20044;-71
2022/01/03 06:52:38;;;;;;;33.95;8.48;;;8.80;99.90;;;;;;5066031;28;20693;-71
2022/01/03 06:55:05;;;;;;;50.13;8.27;;;8.80;99.90;;;;;;5073309;28;20604;-71
2022/01/03 06:57:32;;;;;;;38.70;8.90;;;8.90;99.90;;;;;;5064724;28;20037;-71
2022/01/03 06:59:57;;;;;;;61.08;9.48;;;8.80;99.90;;;;;;5059584;28;20044;-71
2022/01/03 07:02:23;;;;;;;48.72;9.13;;;8.80;99.90;;;;;;5067826;28;20051;-71
2022/01/03 07:04:49;;;;;;;59.10;9.95;;;8.80;99.90;;;;;;5065783;28;20071;-71
2022/01/03 07:07:15;;;;;;;44.10;9.43;;;8.80;99.90;;;;;;5069143;28;20489;-71
2022/01/03 07:09:41;;;;;;;54.92;10.38;;;8.80;99.90;;;;;;5065135;28;20180;-71
2022/01/03 07:12:08;;;;;;;49.65;9.38;;;8.80;99.90;;;;;;5065534;28;20044;-71
2022/01/03 07:19:59;;;;;;;52.70;9.65;;;8.90;99.90;;;;;;5064874;28;20052;-71
2022/01/03 07:22:25;;;;;;;49.65;9.68;;;8.80;99.90;;;;;;5065699;28;20417;-71
2022/01/03 07:24:52;;;;;;;50.38;9.93;;;8.90;99.90;;;;;;5066393;28;20082;-71
2022/01/03 07:27:19;;;;;;;41.40;10.07;;;8.80;99.90;;;;;;5067130;28;20036;-71
2022/01/03 07:29:46;;;;;;;62.80;9.60;;;8.80;99.90;;;;;;5067838;28;20037;-71
2022/01/03 07:32:12;;;;;;;51.90;10.43;;;8.80;99.90;;;;;;5064455;28;20060;-71
2022/01/03 07:34:37;;;;;;;61.78;11.57;;;8.80;99.90;;;;;;5065707;28;20326;-71
2022/01/03 07:37:03;;;;;;;75.43;10.80;;;8.80;99.90;;;;;;5067367;28;20052;-71
2022/01/03 07:39:30;;;;;;;46.28;9.73;;;8.80;99.90;;;;;;5057875;28;20401;-71
2022/01/03 07:41:58;;;;;;;44.50;9.68;;;8.80;99.90;;;;;;5065388;28;20045;-71
2022/01/03 07:44:24;;;;;;;56.07;9.97;;;8.80;99.90;;;;;;5067490;28;20044;-71
2022/01/03 07:46:49;;;;;;;62.97;11.93;;;8.70;99.90;;;;;;5063285;28;20604;-71
2022/01/03 07:49:15;;;;;;;42.78;9.48;;;8.70;99.90;;;;;;5064107;28;20063;-71
2022/01/03 07:51:41;;;;;;;51.97;10.40;;;8.70;99.90;;;;;;5066468;28;20058;-71
2022/01/03 07:54:07;;;;;;;45.00;8.93;;;8.70;99.90;;;;;;5049654;28;20156;-72
2022/01/03 07:56:33;;;;;;;42.10;10.40;;;8.70;99.90;;;;;;5065413;28;20155;-71
2022/01/03 07:59:00;;;;;;;55.22;11.63;;;8.80;99.90;;;;;;5067537;28;20486;-72
2022/01/03 08:01:26;;;;;;;55.55;10.65;;;8.80;99.90;;;;;;5065110;28;20040;-71
2022/01/03 08:03:51;;;;;;;38.60;9.30;;;8.90;99.90;;;;;;5063143;28;20059;-72
2022/01/03 08:06:18;;;;;;;61.45;10.82;;;8.90;99.90;;;;;;5063116;28;20057;-72
2022/01/03 08:08:44;;;;;;;39.50;9.40;;;9.00;99.90;;;;;;5060350;28;20052;-72
2022/01/03 08:11:09;;;;;;;43.35;10.80;;;9.00;99.90;;;;;;5060698;28;20055;-72
2022/01/03 08:13:35;;;;;;;61.30;9.88;;;9.00;99.90;;;;;;5067664;28;20044;-72
2022/01/03 08:16:01;;;;;;;41.30;9.98;;;9.10;99.90;;;;;;5065901;28;20040;-71
2022/01/03 08:18:26;;;;;;;64.82;13.88;;;9.10;99.90;;;;;;5067984;28;20040;-72
2022/01/03 08:20:53;;;;;;;53.92;9.40;;;9.10;99.90;;;;;;5065167;28;20540;-72
2022/01/03 08:23:19;;;;;;;44.00;10.93;;;9.10;99.90;;;;;;5062295;28;20052;-72
2022/01/03 08:25:45;;;;;;;53.03;11.90;;;9.20;99.90;;;;;;5046636;28;20041;-72
2022/01/03 08:28:12;;;;;;;74.38;13.02;;;9.20;99.90;;;;;;5065614;28;20040;-71
2022/01/03 08:30:37;;;;;;;54.22;10.13;;;9.20;99.90;;;;;;5063599;28;20044;-71
2022/01/03 08:33:04;;;;;;;60.10;10.50;;;9.20;99.90;;;;;;5063324;28;20115;-72
2022/01/03 08:35:30;;;;;;;44.00;10.35;;;9.20;99.90;;;;;;5053510;28;20044;-72
2022/01/03 08:37:57;;;;;;;67.47;10.95;;;9.30;99.90;;;;;;5065547;28;20043;-71
2022/01/03 08:40:23;;;;;;;54.70;9.10;;;9.30;99.90;;;;;;5063367;28;20049;-71
2022/01/03 08:42:51;;;;;;;46.40;10.50;;;9.30;99.90;;;;;;5064905;28;20048;-71
2022/01/03 08:45:17;;;;;;;54.40;11.30;;;9.30;99.90;;;;;;5062635;28;20083;-71
2022/01/03 08:47:43;;;;;;;41.75;11.10;;;9.30;99.90;;;;;;5058520;28;20049;-71
2022/01/03 08:50:09;;;;;;;48.10;10.35;;;9.30;99.90;;;;;;5061159;28;20599;-71
2022/01/03 08:52:34;;;;;;;53.60;10.15;;;9.30;99.90;;;;;;5062396;28;20938;-72
2022/01/03 08:55:00;;;;;;;39.00;8.90;;;9.30;99.90;;;;;;5046152;28;20131;-71
2022/01/03 08:57:26;;;;;;;36.45;9.38;;;9.40;99.90;;;;;;5057846;28;20060;-71
2022/01/03 08:59:52;;;;;;;39.78;8.90;;;9.40;99.90;;;;;;5066979;28;20056;-71
2022/01/03 09:02:18;;;;;;;49.05;8.85;;;9.50;99.90;;;;;;5063049;28;20086;-71
2022/01/03 09:04:45;;;;;;;40.42;11.45;;;9.50;99.90;;;;;;5061249;28;20456;-71
2022/01/03 09:07:11;;;;;;;47.85;11.85;;;9.50;99.90;;;;;;5063762;28;20082;-72
2022/01/03 09:09:37;;;;;;;50.65;9.65;;;9.50;99.90;;;;;;5065899;28;20420;-72
2022/01/03 09:12:06;;;;;;;40.63;10.05;;;9.50;99.90;;;;;;5064668;28;20082;-71
2022/01/03 09:14:32;;;;;;;47.42;10.02;;;9.50;99.90;;;;;;5062553;28;20041;-72
2022/01/03 09:16:58;;;;;;;34.22;9.70;;;9.50;99.90;;;;;;5069007;28;20135;-72
2022/01/03 09:19:24;;;;;;;44.60;9.50;;;9.50;99.90;;;;;;5065203;28;20553;-72
2022/01/03 09:21:49;;;;;;;49.15;10.52;;;9.60;99.90;;;;;;5070645;28;20405;-72
2022/01/03 09:29:28;;;;;;;33.55;8.60;;;9.60;99.90;;;;;;5067241;28;20048;-71
2022/01/03 09:31:54;;;;;;;55.58;10.35;;;9.60;99.90;;;;;;5068431;28;20048;-72
2022/01/03 09:34:20;;;;;;;37.67;10.00;;;9.60;99.90;;;;;;5073041;28;20048;-72
2022/01/03 09:36:45;;;;;;;40.78;7.80;;;9.70;99.90;;;;;;5071033;28;20050;-71
2022/01/03 09:39:11;;;;;;;48.30;8.43;;;9.70;99.90;;;;;;5068659;28;20048;-71
2022/01/03 09:41:44;;;;;;;45.88;8.77;;;9.70;99.90;;;;;;5068770;28;20068;-71
2022/01/03 09:44:13;;;;;;;51.28;11.57;;;9.80;99.90;;;;;;5068193;28;20115;-71
2022/01/03 09:46:41;;;;;;;55.03;8.73;;;9.80;99.90;;;;;;5067271;28;20102;-72
2022/01/03 09:49:09;;;;;;;43.70;8.95;;;9.80;99.90;;;;;;5070037;28;20143;-71
2022/01/03 09:51:35;;;;;;;24.65;7.65;;;9.80;99.90;;;;;;5070125;28;20048;-72
2022/01/03 09:54:11;;;;;;;38.35;7.70;;;9.70;99.90;;;;;;5070353;28;20083;-72
2022/01/03 09:56:38;;;;;;;40.47;8.95;;;9.80;99.90;;;;;;5069965;28;20532;-72
2022/01/03 09:59:05;;;;;;;42.13;9.43;;;9.80;99.90;;;;;;5070155;28;20048;-72
2022/01/03 10:01:33;;;;;;;37.03;9.18;;;9.80;99.90;;;;;;5070433;28;20501;-72
2022/01/03 10:03:59;;;;;;;37.03;10.95;;;9.90;99.90;;;;;;5068237;28;20077;-71
2022/01/03 10:06:25;;;;;;;37.65;7.50;;;9.90;99.90;;;;;;5058040;28;20070;-71
2022/01/03 10:08:51;;;;;;;44.70;9.18;;;9.90;99.90;;;;;;5070583;28;20052;-72
2022/01/03 10:11:19;;;;;;;41.97;9.65;;;10.00;99.90;;;;;;5067788;28;20041;-71
2022/01/03 10:13:45;;;;;;;46.00;9.90;;;10.00;99.90;;;;;;5069447;28;20098;-72
2022/01/03 10:16:11;;;;;;;51.20;10.52;;;10.00;99.90;;;;;;5070788;28;20056;-72
2022/01/03 10:18:37;;;;;;;31.90;9.65;;;10.00;99.90;;;;;;5066789;28;20119;-71
2022/01/03 10:21:04;;;;;;;45.63;10.80;;;10.00;99.90;;;;;;5071094;28;20120;-70
2022/01/03 10:23:30;;;;;;;34.75;9.77;;;10.00;99.90;;;;;;5068408;28;20354;-71
2022/01/03 10:26:17;;;;;;;40.13;9.98;;;10.00;99.90;;;;;;5063237;28;20753;-71
2022/01/03 10:28:44;;;;;;;46.90;9.57;;;10.10;99.90;;;;;;5067362;28;20123;-70
2022/01/03 10:31:21;;;;;;;42.80;8.98;;;10.10;99.90;;;;;;5068797;28;20044;-70
2022/01/03 10:34:03;;;;;;;45.40;9.82;;;10.10;99.90;;;;;;5071320;28;20091;-71
2022/01/03 10:36:31;;;;;;;46.15;9.65;;;10.20;99.90;;;;;;5069613;28;20154;-70
2022/01/03 10:38:58;;;;;;;47.22;10.52;;;10.20;99.90;;;;;;5066047;28;20048;-71
2022/01/03 10:41:25;;;;;;;43.55;9.70;;;10.20;99.90;;;;;;5065891;28;20568;-71
2022/01/03 10:43:56;;;;;;;47.15;8.43;;;10.20;99.90;;;;;;5067811;28;20052;-71
2022/01/03 10:46:30;;;;;;;50.55;8.93;;;10.20;99.90;;;;;;5082426;28;20052;-71
2022/01/03 10:49:18;;;;;;;49.30;9.30;;;10.30;99.90;;;;;;5067670;28;20045;-71
2022/01/03 10:51:43;;;;;;;;;;;10.30;99.90;;;;;;5067876;28;20063;-71
2022/01/03 10:54:12;;;;;;;39.17;9.20;;;10.20;99.90;;;;;;5070381;28;20472;-71
2022/01/03 10:56:51;;;;;;;50.70;10.32;;;10.20;99.90;;;;;;5070291;28;20051;-71
2022/01/03 10:59:23;;;;;;;34.63;9.27;;;10.20;99.90;;;;;;5070334;28;20044;-71
2022/01/03 11:02:03;;;;;;;33.95;7.40;;;10.20;99.90;;;;;;5070291;28;20059;-71
2022/01/03 11:13:15;;;;;;;34.83;8.80;;;10.30;99.90;;;;;;5063810;28;20409;-72
2022/01/03 11:15:53;;;;;;;39.78;9.10;;;10.40;99.90;;;;;;5062185;28;20098;-72
2022/01/03 11:18:24;;;;;;;28.45;7.75;;;10.40;99.90;;;;;;5062348;28;20417;-72
2022/01/03 11:21:20;;;;;;;61.85;11.38;;;10.50;99.90;;;;;;5065269;28;20043;-71
2022/01/03 11:24:20;;;;;;;40.40;9.93;;;10.50;99.90;;;;;;5063643;28;20052;-72
2022/01/03 11:26:47;;;;;;;46.58;9.43;;;10.50;99.90;;;;;;5068256;28;20040;-72
2022/01/03 11:29:14;;;;;;;36.08;7.72;;;10.50;99.90;;;;;;5057192;28;20040;-72
2022/01/03 11:31:40;;;;;;;37.50;8.52;;;10.50;99.90;;;;;;5064190;28;20048;-72
2022/01/03 11:34:11;;;;;;;41.00;9.85;;;10.50;99.90;;;;;;5065084;28;20060;-72
2022/01/03 11:36:39;;;;;;;45.15;11.70;;;10.50;99.90;;;;;;5066887;28;20044;-72
2022/01/03 11:39:12;;;;;;;44.20;8.80;;;10.50;99.90;;;;;;5066270;28;20131;-72
2022/01/03 11:41:40;;;;;;;37.47;10.80;;;10.40;99.90;;;;;;5063526;28;20037;-72
2022/01/03 11:44:12;;;;;;;38.53;10.18;;;10.50;99.90;;;;;;5065068;28;20045;-71
2022/01/03 11:46:43;;;;;;;33.15;8.15;;;10.50;99.90;;;;;;5068940;28;20059;-72
2022/01/03 11:49:09;;;;;;;33.00;8.23;;;10.60;99.90;;;;;;5065857;28;20052;-72
2022/01/03 11:51:36;;;;;;;41.35;9.60;;;10.70;99.90;;;;;;5068000;28;20036;-72
2022/01/03 11:54:04;;;;;;;38.20;8.80;;;10.80;99.90;;;;;;5066007;28;20056;-72
2022/01/03 11:56:34;;;;;;;46.28;10.55;;;10.80;99.90;;;;;;5061784;28;20044;-72
2022/01/03 11:59:23;;;;;;;36.90;8.55;;;10.70;99.90;;;;;;5067474;28;20178;-72
2022/01/03 12:04:40;;;;;;;38.90;7.97;;;10.60;99.90;;;;;;5059073;28;20059;-71
2022/01/03 12:07:16;;;;;;;32.00;7.15;;;10.60;99.90;;;;;;5060124;28;20048;-72
2022/01/03 12:09:54;;;;;;;40.53;7.97;;;10.60;99.90;;;;;;5066527;28;20093;-72
2022/01/03 12:12:34;;;;;;;37.10;7.32;;;10.60;99.90;;;;;;5065161;28;20115;-72
2022/01/03 12:15:02;;;;;;;40.10;8.23;;;10.60;99.90;;;;;;5059656;28;20048;-72
2022/01/03 12:17:45;;;;;;;;;;;10.70;99.90;;;;;;5059238;28;20561;-72
2022/01/03 12:20:12;;;;;;;36.97;9.27;;;10.70;99.90;;;;;;5061780;28;19982;-72
2022/01/03 12:22:49;;;;;;;35.45;8.02;;;10.80;99.90;;;;;;5064999;28;20056;-72
2022/01/03 12:25:30;;;;;;;36.67;8.45;;;10.80;99.90;;;;;;5063477;28;20089;-72
2022/01/03 12:27:57;;;;;;;32.83;8.23;;;10.80;99.90;;;;;;5064478;28;20436;-72
2022/01/03 12:30:27;;;;;;;51.67;10.63;;;10.70;99.90;;;;;;5077833;28;20056;-72
2022/01/03 12:33:08;;;;;;;39.90;8.40;;;10.70;99.90;;;;;;5065661;28;20090;-72
2022/01/03 12:35:37;;;;;;;50.47;8.52;;;10.70;99.90;;;;;;5064668;28;20044;-72
2022/01/03 12:38:02;;;;;;;44.55;9.10;;;10.70;99.90;;;;;;5067047;28;20036;-72
2022/01/03 12:40:50;;;;;;;41.72;9.88;;;10.60;99.90;;;;;;5064301;28;20165;-72
2022/01/03 12:43:18;;;;;;;57.00;10.73;;;10.70;99.90;;;;;;5064494;28;20045;-72
2022/01/03 12:45:44;;;;;;;37.08;7.82;;;10.80;99.90;;;;;;5076552;28;20055;-72
2022/01/03 12:48:10;;;;;;;38.40;7.85;;;10.80;99.90;;;;;;5067974;28;20574;-72
2022/01/03 12:50:50;;;;;;;37.65;8.55;;;10.80;99.90;;;;;;5067289;28;20063;-72
2022/01/03 12:53:32;;;;;;;39.60;8.05;;;10.80;99.90;;;;;;5063874;28;20056;-73
2022/01/03 12:56:00;;;;;;;40.40;7.90;;;10.80;99.90;;;;;;5069102;28;20485;-72
2022/01/03 12:58:26;;;;;;;57.20;9.90;;;10.80;99.90;;;;;;5069521;28;20051;-72
2022/01/03 13:00:59;;;;;;;53.00;9.98;;;10.80;99.90;;;;;;5066487;28;20048;-72
2022/01/03 13:03:42;;;;;;;59.72;9.88;;;10.80;99.90;;;;;;5039306;28;20055;-72
2022/01/03 13:06:27;;;;;;;50.78;10.23;;;10.80;99.90;;;;;;5070354;28;20399;-72
2022/01/03 13:08:55;;;;;;;34.53;9.73;;;10.80;99.90;;;;;;5064673;28;20128;-72
2022/01/03 13:11:38;;;;;;;38.67;9.00;;;10.80;99.90;;;;;;5069967;28;20047;-71
2022/01/03 13:14:19;;;;;;;50.65;10.30;;;10.70;99.90;;;;;;5068463;28;20036;-72